sensor_id;sensor_type;location;lat;lon;timestamp;temperature;humidity
23122;DHT22;11730;51.248;22.534;2023-03-01T00:01:16;-2.00;96.30
23122;DHT22;11730;51.248;22.534;2023-03-01T00:03:43;-2.10;97.10
23122;DHT22;11730;51.248;22.534;2023-03-01T00:06:11;-1.90;97.30
23122;DHT22;11730;51.248;22.534;2023-03-01T00:11:20;-2.10;97.10
23122;DHT22;11730;51.248;22.534;2023-03-01T00:13:49;-2.30;97.60
23122;DHT22;11730;51.248;22.534;2023-03-01T00:16:24;-2.00;98.20
23122;DHT22;11730;51.248;22.534;2023-03-01T00:21:20;-2.10;97.20
23122;DHT22;11730;51.248;22.534;2023-03-01T00:23:49;-2.20;97.60
23122;DHT22;11730;51.248;22.534;2023-03-01T00:26:17;-2.20;98.70
23122;DHT22;11730;51.248;22.534;2023-03-01T00:28:45;-2.30;99.00
23122;DHT22;11730;51.248;22.534;2023-03-01T00:31:15;-2.50;98.80
23122;DHT22;11730;51.248;22.534;2023-03-01T00:36:11;-2.40;98.80
23122;DHT22;11730;51.248;22.534;2023-03-01T00:38:40;-2.60;99.60
23122;DHT22;11730;51.248;22.534;2023-03-01T00:41:10;-2.60;99.90
23122;DHT22;11730;51.248;22.534;2023-03-01T00:46:10;-2.20;99.60
23122;DHT22;11730;51.248;22.534;2023-03-01T00:48:38;-2.70;99.90
23122;DHT22;11730;51.248;22.534;2023-03-01T00:51:16;-2.50;99.60
23122;DHT22;11730;51.248;22.534;2023-03-01T00:53:44;-2.40;99.70
23122;DHT22;11730;51.248;22.534;2023-03-01T00:56:14;-2.40;99.70
23122;DHT22;11730;51.248;22.534;2023-03-01T00:58:41;-2.50;99.90
23122;DHT22;11730;51.248;22.534;2023-03-01T01:01:25;-2.90;99.90
23122;DHT22;11730;51.248;22.534;2023-03-01T01:03:57;-2.60;99.90
23122;DHT22;11730;51.248;22.534;2023-03-01T01:06:27;-2.70;99.90
23122;DHT22;11730;51.248;22.534;2023-03-01T01:08:55;-2.60;99.90
23122;DHT22;11730;51.248;22.534;2023-03-01T01:11:24;-2.60;99.90
23122;DHT22;11730;51.248;22.534;2023-03-01T01:16:21;-2.80;99.90
23122;DHT22;11730;51.248;22.534;2023-03-01T01:18:49;-2.80;99.90
23122;DHT22;11730;51.248;22.534;2023-03-01T01:21:18;-2.80;99.90
23122;DHT22;11730;51.248;22.534;2023-03-01T01:26:17;-2.80;99.90
23122;DHT22;11730;51.248;22.534;2023-03-01T01:28:44;-2.70;99.90
23122;DHT22;11730;51.248;22.534;2023-03-01T01:31:11;-2.80;99.90
23122;DHT22;11730;51.248;22.534;2023-03-01T01:33:38;-2.80;99.90
23122;DHT22;11730;51.248;22.534;2023-03-01T01:36:07;-2.70;99.90
23122;DHT22;11730;51.248;22.534;2023-03-01T01:38:35;-2.80;99.90
23122;DHT22;11730;51.248;22.534;2023-03-01T01:43:35;-2.90;99.90
23122;DHT22;11730;51.248;22.534;2023-03-01T01:48:53;-2.80;99.90
23122;DHT22;11730;51.248;22.534;2023-03-01T01:51:25;-2.70;99.90
23122;DHT22;11730;51.248;22.534;2023-03-01T01:53:59;-2.10;99.90
23122;DHT22;11730;51.248;22.534;2023-03-01T01:56:27;-2.90;99.90
23122;DHT22;11730;51.248;22.534;2023-03-01T01:58:56;-2.90;99.90
23122;DHT22;11730;51.248;22.534;2023-03-01T02:06:31;-3.00;99.90
23122;DHT22;11730;51.248;22.534;2023-03-01T02:09:02;-3.10;99.90
23122;DHT22;11730;51.248;22.534;2023-03-01T02:11:31;-3.10;99.90
23122;DHT22;11730;51.248;22.534;2023-03-01T02:16:26;-3.10;99.90
23122;DHT22;11730;51.248;22.534;2023-03-01T02:23:48;-3.10;99.90
23122;DHT22;11730;51.248;22.534;2023-03-01T02:28:58;-2.90;99.90
23122;DHT22;11730;51.248;22.534;2023-03-01T02:31:25;-3.00;99.90
23122;DHT22;11730;51.248;22.534;2023-03-01T02:34:14;-3.00;99.90
23122;DHT22;11730;51.248;22.534;2023-03-01T02:39:17;-3.20;99.90
23122;DHT22;11730;51.248;22.534;2023-03-01T02:41:50;-3.00;99.90
23122;DHT22;11730;51.248;22.534;2023-03-01T02:44:18;-2.90;99.90
23122;DHT22;11730;51.248;22.534;2023-03-01T02:46:53;-3.10;99.90
23122;DHT22;11730;51.248;22.534;2023-03-01T02:52:10;-3.10;99.90
23122;DHT22;11730;51.248;22.534;2023-03-01T02:57:09;-3.20;99.90
23122;DHT22;11730;51.248;22.534;2023-03-01T02:59:37;-3.20;99.90
23122;DHT22;11730;51.248;22.534;2023-03-01T03:02:07;-3.20;99.90
23122;DHT22;11730;51.248;22.534;2023-03-01T03:07:01;-3.10;99.90
23122;DHT22;11730;51.248;22.534;2023-03-01T03:11:56;-3.00;99.90
23122;DHT22;11730;51.248;22.534;2023-03-01T03:14:22;-3.30;99.90
23122;DHT22;11730;51.248;22.534;2023-03-01T03:19:18;-3.30;99.90
23122;DHT22;11730;51.248;22.534;2023-03-01T03:21:45;-3.30;99.90
23122;DHT22;11730;51.248;22.534;2023-03-01T03:24:12;-3.20;99.90
23122;DHT22;11730;51.248;22.534;2023-03-01T03:29:06;-3.20;99.90
23122;DHT22;11730;51.248;22.534;2023-03-01T03:36:28;-3.20;99.90
23122;DHT22;11730;51.248;22.534;2023-03-01T03:41:22;-3.10;99.90
23122;DHT22;11730;51.248;22.534;2023-03-01T03:43:49;-3.10;99.90
23122;DHT22;11730;51.248;22.534;2023-03-01T03:48:45;-3.10;99.90
23122;DHT22;11730;51.248;22.534;2023-03-01T03:51:14;-3.10;99.90
23122;DHT22;11730;51.248;22.534;2023-03-01T03:53:42;-3.20;99.90
23122;DHT22;11730;51.248;22.534;2023-03-01T03:56:09;-3.20;99.90
23122;DHT22;11730;51.248;22.534;2023-03-01T04:01:04;-3.20;99.90
23122;DHT22;11730;51.248;22.534;2023-03-01T04:03:32;-3.30;99.90
23122;DHT22;11730;51.248;22.534;2023-03-01T04:06:00;-3.50;99.90
23122;DHT22;11730;51.248;22.534;2023-03-01T04:08:28;-3.30;99.90
23122;DHT22;11730;51.248;22.534;2023-03-01T04:11:03;-3.30;99.90
23122;DHT22;11730;51.248;22.534;2023-03-01T04:13:52;-3.40;99.90
23122;DHT22;11730;51.248;22.534;2023-03-01T04:16:20;-3.20;99.90
23122;DHT22;11730;51.248;22.534;2023-03-01T04:18:47;-3.10;99.90
23122;DHT22;11730;51.248;22.534;2023-03-01T04:26:08;-3.20;99.90
23122;DHT22;11730;51.248;22.534;2023-03-01T04:28:40;-3.20;99.90
23122;DHT22;11730;51.248;22.534;2023-03-01T04:31:14;-3.30;99.90
23122;DHT22;11730;51.248;22.534;2023-03-01T04:33:53;-3.20;99.90
23122;DHT22;11730;51.248;22.534;2023-03-01T04:36:26;-3.20;99.90
23122;DHT22;11730;51.248;22.534;2023-03-01T04:38:54;-3.10;99.90
23122;DHT22;11730;51.248;22.534;2023-03-01T04:41:23;-3.10;99.90
23122;DHT22;11730;51.248;22.534;2023-03-01T04:46:20;-3.40;99.90
23122;DHT22;11730;51.248;22.534;2023-03-01T04:53:43;-3.10;99.90
23122;DHT22;11730;51.248;22.534;2023-03-01T05:01:16;-3.00;99.90
23122;DHT22;11730;51.248;22.534;2023-03-01T05:03:48;-3.10;99.90
23122;DHT22;11730;51.248;22.534;2023-03-01T05:06:17;-3.10;99.90
23122;DHT22;11730;51.248;22.534;2023-03-01T05:08:44;-3.10;99.90
23122;DHT22;11730;51.248;22.534;2023-03-01T05:11:11;-3.10;99.90
23122;DHT22;11730;51.248;22.534;2023-03-01T05:13:39;-3.30;99.90
23122;DHT22;11730;51.248;22.534;2023-03-01T05:16:07;-3.10;99.90
23122;DHT22;11730;51.248;22.534;2023-03-01T05:18:38;-3.10;99.90
23122;DHT22;11730;51.248;22.534;2023-03-01T05:21:11;-3.00;99.90
23122;DHT22;11730;51.248;22.534;2023-03-01T05:23:39;-3.00;99.90
23122;DHT22;11730;51.248;22.534;2023-03-01T05:26:06;-3.10;99.90
23122;DHT22;11730;51.248;22.534;2023-03-01T05:28:48;-3.10;99.90
23122;DHT22;11730;51.248;22.534;2023-03-01T05:31:15;-3.00;99.90
23122;DHT22;11730;51.248;22.534;2023-03-01T05:33:42;-3.00;99.90
23122;DHT22;11730;51.248;22.534;2023-03-01T05:36:10;-3.20;99.90
23122;DHT22;11730;51.248;22.534;2023-03-01T05:41:04;-3.00;99.90
23122;DHT22;11730;51.248;22.534;2023-03-01T05:43:31;-3.20;99.90
23122;DHT22;11730;51.248;22.534;2023-03-01T05:48:28;-2.80;99.90
23122;DHT22;11730;51.248;22.534;2023-03-01T05:50:59;-2.90;99.90
23122;DHT22;11730;51.248;22.534;2023-03-01T05:53:26;-2.90;99.90
23122;DHT22;11730;51.248;22.534;2023-03-01T05:58:21;-2.70;99.90
23122;DHT22;11730;51.248;22.534;2023-03-01T06:00:48;-2.80;99.90
23122;DHT22;11730;51.248;22.534;2023-03-01T06:03:17;-2.70;99.90
23122;DHT22;11730;51.248;22.534;2023-03-01T06:08:12;-2.40;99.90
23122;DHT22;11730;51.248;22.534;2023-03-01T06:13:07;-2.00;99.90
23122;DHT22;11730;51.248;22.534;2023-03-01T06:25:25;-2.00;99.90
23122;DHT22;11730;51.248;22.534;2023-03-01T06:27:53;-1.90;99.90
23122;DHT22;11730;51.248;22.534;2023-03-01T06:30:21;-1.80;99.90
23122;DHT22;11730;51.248;22.534;2023-03-01T06:32:49;-1.90;99.90
23122;DHT22;11730;51.248;22.534;2023-03-01T06:35:17;-1.60;99.90
23122;DHT22;11730;51.248;22.534;2023-03-01T06:37:46;-1.50;99.90
23122;DHT22;11730;51.248;22.534;2023-03-01T06:40:14;-1.40;99.90
23122;DHT22;11730;51.248;22.534;2023-03-01T06:42:44;-1.30;99.90
23122;DHT22;11730;51.248;22.534;2023-03-01T06:47:41;-0.70;99.90
23122;DHT22;11730;51.248;22.534;2023-03-01T06:50:08;-0.60;99.90
23122;DHT22;11730;51.248;22.534;2023-03-01T06:52:35;-0.60;99.90
23122;DHT22;11730;51.248;22.534;2023-03-01T06:55:03;-0.20;99.90
23122;DHT22;11730;51.248;22.534;2023-03-01T06:59:57;0.40;99.90
23122;DHT22;11730;51.248;22.534;2023-03-01T07:04:52;0.90;99.90
23122;DHT22;11730;51.248;22.534;2023-03-01T07:07:19;1.10;99.90
23122;DHT22;11730;51.248;22.534;2023-03-01T07:12:13;1.30;99.90
23122;DHT22;11730;51.248;22.534;2023-03-01T07:19:35;1.60;99.90
23122;DHT22;11730;51.248;22.534;2023-03-01T07:22:03;1.80;99.20
23122;DHT22;11730;51.248;22.534;2023-03-01T07:26:58;1.60;99.40
23122;DHT22;11730;51.248;22.534;2023-03-01T07:29:25;1.70;99.60
23122;DHT22;11730;51.248;22.534;2023-03-01T07:31:51;2.20;99.20
23122;DHT22;11730;51.248;22.534;2023-03-01T07:34:18;2.30;98.50
23122;DHT22;11730;51.248;22.534;2023-03-01T07:36:45;2.20;97.70
23122;DHT22;11730;51.248;22.534;2023-03-01T07:39:12;2.40;97.30
23122;DHT22;11730;51.248;22.534;2023-03-01T07:41:39;2.60;97.00
23122;DHT22;11730;51.248;22.534;2023-03-01T07:44:06;2.60;96.00
23122;DHT22;11730;51.248;22.534;2023-03-01T07:46:33;2.60;95.80
23122;DHT22;11730;51.248;22.534;2023-03-01T07:49:00;2.60;96.00
23122;DHT22;11730;51.248;22.534;2023-03-01T07:51:27;3.20;94.80
23122;DHT22;11730;51.248;22.534;2023-03-01T07:53:54;3.30;95.60
23122;DHT22;11730;51.248;22.534;2023-03-01T07:56:21;3.50;94.80
23122;DHT22;11730;51.248;22.534;2023-03-01T07:58:48;3.60;94.70
23122;DHT22;11730;51.248;22.534;2023-03-01T08:01:18;3.80;93.20
23122;DHT22;11730;51.248;22.534;2023-03-01T08:03:45;3.80;93.40
23122;DHT22;11730;51.248;22.534;2023-03-01T08:06:14;3.70;93.00
23122;DHT22;11730;51.248;22.534;2023-03-01T08:08:41;3.80;92.80
23122;DHT22;11730;51.248;22.534;2023-03-01T08:11:10;4.20;92.40
23122;DHT22;11730;51.248;22.534;2023-03-01T08:16:11;4.60;91.30
23122;DHT22;11730;51.248;22.534;2023-03-01T08:18:38;4.60;90.80
23122;DHT22;11730;51.248;22.534;2023-03-01T08:21:07;4.20;90.90
23122;DHT22;11730;51.248;22.534;2023-03-01T08:23:34;4.50;91.60
23122;DHT22;11730;51.248;22.534;2023-03-01T08:26:20;4.40;91.40
23122;DHT22;11730;51.248;22.534;2023-03-01T08:28:49;4.70;90.30
23122;DHT22;11730;51.248;22.534;2023-03-01T08:31:21;4.90;90.00
23122;DHT22;11730;51.248;22.534;2023-03-01T08:33:51;5.20;89.30
23122;DHT22;11730;51.248;22.534;2023-03-01T08:36:32;5.30;89.50
23122;DHT22;11730;51.248;22.534;2023-03-01T08:38:59;5.70;86.50
23122;DHT22;11730;51.248;22.534;2023-03-01T08:41:27;5.70;85.70
23122;DHT22;11730;51.248;22.534;2023-03-01T08:46:30;6.10;84.50
23122;DHT22;11730;51.248;22.534;2023-03-01T08:48:58;7.00;82.00
23122;DHT22;11730;51.248;22.534;2023-03-01T08:51:26;7.00;81.90
23122;DHT22;11730;51.248;22.534;2023-03-01T08:53:53;6.90;79.40
23122;DHT22;11730;51.248;22.534;2023-03-01T08:56:20;7.00;79.30
23122;DHT22;11730;51.248;22.534;2023-03-01T08:58:47;7.10;77.30
23122;DHT22;11730;51.248;22.534;2023-03-01T09:01:16;7.30;77.80
23122;DHT22;11730;51.248;22.534;2023-03-01T09:03:45;7.30;75.70
23122;DHT22;11730;51.248;22.534;2023-03-01T09:06:13;7.20;75.00
23122;DHT22;11730;51.248;22.534;2023-03-01T09:08:43;7.70;76.60
23122;DHT22;11730;51.248;22.534;2023-03-01T09:11:13;7.80;76.10
23122;DHT22;11730;51.248;22.534;2023-03-01T09:13:42;8.40;72.50
23122;DHT22;11730;51.248;22.534;2023-03-01T09:16:12;8.10;71.20
23122;DHT22;11730;51.248;22.534;2023-03-01T09:18:40;8.40;69.90
23122;DHT22;11730;51.248;22.534;2023-03-01T09:21:15;8.30;69.40
23122;DHT22;11730;51.248;22.534;2023-03-01T09:23:47;8.30;69.50
23122;DHT22;11730;51.248;22.534;2023-03-01T09:26:19;8.20;68.70
23122;DHT22;11730;51.248;22.534;2023-03-01T09:28:50;8.20;69.00
23122;DHT22;11730;51.248;22.534;2023-03-01T09:31:18;8.60;69.80
23122;DHT22;11730;51.248;22.534;2023-03-01T09:33:47;9.00;67.30
23122;DHT22;11730;51.248;22.534;2023-03-01T09:36:17;8.20;66.70
23122;DHT22;11730;51.248;22.534;2023-03-01T09:38:45;8.80;65.30
23122;DHT22;11730;51.248;22.534;2023-03-01T09:43:48;10.70;61.70
23122;DHT22;11730;51.248;22.534;2023-03-01T09:46:23;10.70;63.20
23122;DHT22;11730;51.248;22.534;2023-03-01T09:49:06;9.60;63.80
23122;DHT22;11730;51.248;22.534;2023-03-01T09:51:35;9.80;64.50
23122;DHT22;11730;51.248;22.534;2023-03-01T09:54:04;9.90;64.20
23122;DHT22;11730;51.248;22.534;2023-03-01T09:56:46;9.50;63.70
23122;DHT22;11730;51.248;22.534;2023-03-01T10:09:40;11.50;57.30
23122;DHT22;11730;51.248;22.534;2023-03-01T10:12:20;10.70;56.10
23122;DHT22;11730;51.248;22.534;2023-03-01T10:15:08;10.60;56.80
23122;DHT22;11730;51.248;22.534;2023-03-01T10:20:21;11.10;56.40
23122;DHT22;11730;51.248;22.534;2023-03-01T10:22:49;11.20;57.50
23122;DHT22;11730;51.248;22.534;2023-03-01T10:28:35;10.40;57.30
23122;DHT22;11730;51.248;22.534;2023-03-01T10:31:12;12.00;54.90
23122;DHT22;11730;51.248;22.534;2023-03-01T10:33:41;11.90;54.20
23122;DHT22;11730;51.248;22.534;2023-03-01T10:36:08;10.40;56.40
23122;DHT22;11730;51.248;22.534;2023-03-01T10:38:53;10.30;58.60
23122;DHT22;11730;51.248;22.534;2023-03-01T10:41:22;11.90;54.60
23122;DHT22;11730;51.248;22.534;2023-03-01T10:43:54;11.90;54.90
23122;DHT22;11730;51.248;22.534;2023-03-01T10:46:35;11.30;53.30
23122;DHT22;11730;51.248;22.534;2023-03-01T10:49:15;11.50;54.80
23122;DHT22;11730;51.248;22.534;2023-03-01T10:51:45;11.20;54.40
23122;DHT22;11730;51.248;22.534;2023-03-01T10:54:29;10.30;55.30
23122;DHT22;11730;51.248;22.534;2023-03-01T10:56:58;11.00;54.90
23122;DHT22;11730;51.248;22.534;2023-03-01T10:59:37;11.60;55.80
23122;DHT22;11730;51.248;22.534;2023-03-01T11:02:22;12.00;52.90
23122;DHT22;11730;51.248;22.534;2023-03-01T11:08:07;11.00;52.70
23122;DHT22;11730;51.248;22.534;2023-03-01T11:10:36;12.20;51.10
23122;DHT22;11730;51.248;22.534;2023-03-01T11:13:14;12.20;50.30
23122;DHT22;11730;51.248;22.534;2023-03-01T11:15:42;12.60;50.10
23122;DHT22;11730;51.248;22.534;2023-03-01T11:18:20;12.10;50.00
23122;DHT22;11730;51.248;22.534;2023-03-01T11:20:53;12.00;50.10
23122;DHT22;11730;51.248;22.534;2023-03-01T11:23:22;12.00;49.60
23122;DHT22;11730;51.248;22.534;2023-03-01T11:25:59;11.10;51.20
23122;DHT22;11730;51.248;22.534;2023-03-01T11:28:28;11.10;52.60
23122;DHT22;11730;51.248;22.534;2023-03-01T11:31:03;10.70;53.80
23122;DHT22;11730;51.248;22.534;2023-03-01T11:33:37;10.60;54.20
23122;DHT22;11730;51.248;22.534;2023-03-01T11:38:42;11.70;51.20
23122;DHT22;11730;51.248;22.534;2023-03-01T11:41:42;10.70;53.30
23122;DHT22;11730;51.248;22.534;2023-03-01T11:44:18;11.20;54.90
23122;DHT22;11730;51.248;22.534;2023-03-01T11:47:11;12.60;51.80
23122;DHT22;11730;51.248;22.534;2023-03-01T11:52:48;13.40;50.30
23122;DHT22;11730;51.248;22.534;2023-03-01T12:06:17;10.10;54.50
23122;DHT22;11730;51.248;22.534;2023-03-01T12:12:01;12.50;52.20
23122;DHT22;11730;51.248;22.534;2023-03-01T12:26:19;13.70;48.00
23122;DHT22;11730;51.248;22.534;2023-03-01T12:37:45;14.00;48.60
23122;DHT22;11730;51.248;22.534;2023-03-01T12:40:03;12.80;49.10
23122;DHT22;11730;51.248;22.534;2023-03-01T12:51:08;9.70;55.80
23122;DHT22;11730;51.248;22.534;2023-03-01T12:53:45;9.60;56.90
23122;DHT22;11730;51.248;22.534;2023-03-01T12:56:22;9.40;57.10
23122;DHT22;11730;51.248;22.534;2023-03-01T13:02:04;10.10;56.60
23122;DHT22;11730;51.248;22.534;2023-03-01T13:04:57;10.30;56.00
23122;DHT22;11730;51.248;22.534;2023-03-01T13:10:26;11.10;57.70
23122;DHT22;11730;51.248;22.534;2023-03-01T13:15:37;11.00;53.80
23122;DHT22;11730;51.248;22.534;2023-03-01T13:31:05;10.50;57.40
23122;DHT22;11730;51.248;22.534;2023-03-01T13:33:49;10.10;57.00
23122;DHT22;11730;51.248;22.534;2023-03-01T13:39:29;11.10;56.70
23122;DHT22;11730;51.248;22.534;2023-03-01T13:41:59;10.40;55.10
23122;DHT22;11730;51.248;22.534;2023-03-01T13:44:33;9.60;55.80
23122;DHT22;11730;51.248;22.534;2023-03-01T13:49:48;10.30;56.40
23122;DHT22;11730;51.248;22.534;2023-03-01T13:52:56;10.20;55.70
23122;DHT22;11730;51.248;22.534;2023-03-01T13:55:43;10.20;56.40
23122;DHT22;11730;51.248;22.534;2023-03-01T14:01:01;9.60;59.00
23122;DHT22;11730;51.248;22.534;2023-03-01T14:03:29;10.10;57.70
23122;DHT22;11730;51.248;22.534;2023-03-01T14:06:09;10.20;57.50
23122;DHT22;11730;51.248;22.534;2023-03-01T14:08:44;10.40;57.60
23122;DHT22;11730;51.248;22.534;2023-03-01T14:14:10;11.20;58.10
23122;DHT22;11730;51.248;22.534;2023-03-01T14:19:30;11.00;56.30
23122;DHT22;11730;51.248;22.534;2023-03-01T14:22:25;10.30;57.80
23122;DHT22;11730;51.248;22.534;2023-03-01T14:25:01;8.50;58.80
23122;DHT22;11730;51.248;22.534;2023-03-01T14:27:33;8.60;59.40
23122;DHT22;11730;51.248;22.534;2023-03-01T14:30:15;8.40;62.70
23122;DHT22;11730;51.248;22.534;2023-03-01T14:32:56;8.50;61.80
23122;DHT22;11730;51.248;22.534;2023-03-01T14:35:27;9.00;62.70
23122;DHT22;11730;51.248;22.534;2023-03-01T14:43:00;8.00;63.40
23122;DHT22;11730;51.248;22.534;2023-03-01T14:45:29;8.00;64.60
23122;DHT22;11730;51.248;22.534;2023-03-01T14:48:02;7.80;63.50
23122;DHT22;11730;51.248;22.534;2023-03-01T14:50:33;7.60;63.90
23122;DHT22;11730;51.248;22.534;2023-03-01T14:53:03;7.70;63.50
23122;DHT22;11730;51.248;22.534;2023-03-01T14:55:34;7.20;64.70
23122;DHT22;11730;51.248;22.534;2023-03-01T14:58:09;7.00;65.70
23122;DHT22;11730;51.248;22.534;2023-03-01T15:00:39;6.90;67.20
23122;DHT22;11730;51.248;22.534;2023-03-01T15:03:14;6.90;67.70
23122;DHT22;11730;51.248;22.534;2023-03-01T15:05:44;6.80;67.80
23122;DHT22;11730;51.248;22.534;2023-03-01T15:08:24;7.20;67.90
23122;DHT22;11730;51.248;22.534;2023-03-01T15:11:22;7.00;67.80
23122;DHT22;11730;51.248;22.534;2023-03-01T15:13:52;6.90;67.70
23122;DHT22;11730;51.248;22.534;2023-03-01T15:16:22;6.80;68.20
23122;DHT22;11730;51.248;22.534;2023-03-01T15:21:31;6.40;69.70
23122;DHT22;11730;51.248;22.534;2023-03-01T15:26:41;6.10;70.00
23122;DHT22;11730;51.248;22.534;2023-03-01T15:29:17;6.40;71.20
23122;DHT22;11730;51.248;22.534;2023-03-01T15:31:58;5.90;71.30
23122;DHT22;11730;51.248;22.534;2023-03-01T15:36:58;5.70;71.50
23122;DHT22;11730;51.248;22.534;2023-03-01T15:41:54;5.60;72.00
23122;DHT22;11730;51.248;22.534;2023-03-01T15:44:32;5.90;72.80
23122;DHT22;11730;51.248;22.534;2023-03-01T15:47:24;5.20;72.50
23122;DHT22;11730;51.248;22.534;2023-03-01T15:49:52;5.30;72.50
23122;DHT22;11730;51.248;22.534;2023-03-01T15:52:34;5.10;73.10
23122;DHT22;11730;51.248;22.534;2023-03-01T16:00:17;5.20;73.80
23122;DHT22;11730;51.248;22.534;2023-03-01T16:02:44;5.10;74.20
23122;DHT22;11730;51.248;22.534;2023-03-01T16:05:22;5.10;74.20
23122;DHT22;11730;51.248;22.534;2023-03-01T16:07:50;5.10;74.90
23122;DHT22;11730;51.248;22.534;2023-03-01T16:10:18;4.90;74.90
23122;DHT22;11730;51.248;22.534;2023-03-01T16:15:28;4.90;76.00
23122;DHT22;11730;51.248;22.534;2023-03-01T16:17:58;5.00;75.70
23122;DHT22;11730;51.248;22.534;2023-03-01T16:20:26;5.00;75.90
23122;DHT22;11730;51.248;22.534;2023-03-01T16:23:02;4.70;76.00
23122;DHT22;11730;51.248;22.534;2023-03-01T16:25:30;4.60;76.60
23122;DHT22;11730;51.248;22.534;2023-03-01T16:27:58;4.60;77.20
23122;DHT22;11730;51.248;22.534;2023-03-01T16:30:27;4.60;77.40
23122;DHT22;11730;51.248;22.534;2023-03-01T16:32:54;4.10;76.80
23122;DHT22;11730;51.248;22.534;2023-03-01T16:35:22;4.50;77.00
23122;DHT22;11730;51.248;22.534;2023-03-01T16:40:21;4.50;77.40
23122;DHT22;11730;51.248;22.534;2023-03-01T16:42:49;4.50;77.80
23122;DHT22;11730;51.248;22.534;2023-03-01T16:45:17;4.50;78.10
23122;DHT22;11730;51.248;22.534;2023-03-01T16:52:48;4.40;78.00
23122;DHT22;11730;51.248;22.534;2023-03-01T16:57:42;4.20;78.40
23122;DHT22;11730;51.248;22.534;2023-03-01T17:00:11;4.30;78.80
23122;DHT22;11730;51.248;22.534;2023-03-01T17:02:40;4.40;80.30
23122;DHT22;11730;51.248;22.534;2023-03-01T17:05:09;4.40;79.60
23122;DHT22;11730;51.248;22.534;2023-03-01T17:07:37;4.20;79.30
23122;DHT22;11730;51.248;22.534;2023-03-01T17:10:07;4.20;79.20
23122;DHT22;11730;51.248;22.534;2023-03-01T17:15:03;4.00;79.80
23122;DHT22;11730;51.248;22.534;2023-03-01T17:17:31;3.90;80.70
23122;DHT22;11730;51.248;22.534;2023-03-01T17:22:25;3.70;80.40
23122;DHT22;11730;51.248;22.534;2023-03-01T17:32:15;3.90;82.00
23122;DHT22;11730;51.248;22.534;2023-03-01T17:37:09;3.60;82.70
23122;DHT22;11730;51.248;22.534;2023-03-01T17:42:04;3.30;83.20
23122;DHT22;11730;51.248;22.534;2023-03-01T17:44:32;3.40;83.70
23122;DHT22;11730;51.248;22.534;2023-03-01T17:47:01;3.30;84.00
23122;DHT22;11730;51.248;22.534;2023-03-01T17:54:24;3.20;84.30
23122;DHT22;11730;51.248;22.534;2023-03-01T17:59:18;3.10;84.80
23122;DHT22;11730;51.248;22.534;2023-03-01T18:06:40;3.00;85.30
23122;DHT22;11730;51.248;22.534;2023-03-01T18:09:08;3.10;85.20
23122;DHT22;11730;51.248;22.534;2023-03-01T18:11:35;2.80;85.30
23122;DHT22;11730;51.248;22.534;2023-03-01T18:14:03;3.10;85.60
23122;DHT22;11730;51.248;22.534;2023-03-01T18:19:00;4.20;86.20
23122;DHT22;11730;51.248;22.534;2023-03-01T18:21:28;3.10;85.50
23122;DHT22;11730;51.248;22.534;2023-03-01T18:23:56;2.70;85.70
23122;DHT22;11730;51.248;22.534;2023-03-01T18:26:25;3.30;86.80
23122;DHT22;11730;51.248;22.534;2023-03-01T18:28:54;3.70;86.70
23122;DHT22;11730;51.248;22.534;2023-03-01T18:31:24;3.10;86.00
23122;DHT22;11730;51.248;22.534;2023-03-01T18:33:52;3.20;87.10
23122;DHT22;11730;51.248;22.534;2023-03-01T18:36:28;3.00;86.60
23122;DHT22;11730;51.248;22.534;2023-03-01T18:38:55;2.70;86.00
23122;DHT22;11730;51.248;22.534;2023-03-01T18:41:26;2.90;86.20
23122;DHT22;11730;51.248;22.534;2023-03-01T18:43:54;2.80;86.50
23122;DHT22;11730;51.248;22.534;2023-03-01T18:48:51;3.00;86.20
23122;DHT22;11730;51.248;22.534;2023-03-01T18:51:26;2.80;86.10
23122;DHT22;11730;51.248;22.534;2023-03-01T18:53:57;2.70;86.30
23122;DHT22;11730;51.248;22.534;2023-03-01T18:56:27;2.70;86.10
23122;DHT22;11730;51.248;22.534;2023-03-01T19:01:27;2.60;86.50
23122;DHT22;11730;51.248;22.534;2023-03-01T19:06:28;2.90;87.60
23122;DHT22;11730;51.248;22.534;2023-03-01T19:08:56;2.50;86.90
23122;DHT22;11730;51.248;22.534;2023-03-01T19:13:53;2.50;86.80
23122;DHT22;11730;51.248;22.534;2023-03-01T19:16:23;2.50;87.10
23122;DHT22;11730;51.248;22.534;2023-03-01T19:18:50;2.20;87.50
23122;DHT22;11730;51.248;22.534;2023-03-01T19:21:20;2.60;87.60
23122;DHT22;11730;51.248;22.534;2023-03-01T19:23:48;2.10;87.10
23122;DHT22;11730;51.248;22.534;2023-03-01T19:26:18;2.10;87.50
23122;DHT22;11730;51.248;22.534;2023-03-01T19:28:45;2.50;87.80
23122;DHT22;11730;51.248;22.534;2023-03-01T19:31:16;2.40;87.70
23122;DHT22;11730;51.248;22.534;2023-03-01T19:33:43;2.40;87.70
23122;DHT22;11730;51.248;22.534;2023-03-01T19:36:12;2.10;88.20
23122;DHT22;11730;51.248;22.534;2023-03-01T19:38:41;2.20;88.50
23122;DHT22;11730;51.248;22.534;2023-03-01T19:41:11;2.30;88.20
23122;DHT22;11730;51.248;22.534;2023-03-01T19:43:41;2.20;88.10
23122;DHT22;11730;51.248;22.534;2023-03-01T19:46:09;2.20;88.90
23122;DHT22;11730;51.248;22.534;2023-03-01T19:51:07;2.30;89.00
23122;DHT22;11730;51.248;22.534;2023-03-01T19:53:35;2.30;89.10
23122;DHT22;11730;51.248;22.534;2023-03-01T19:56:02;2.00;89.30
23122;DHT22;11730;51.248;22.534;2023-03-01T19:58:31;2.10;89.30
23122;DHT22;11730;51.248;22.534;2023-03-01T20:00:58;2.10;89.70
23122;DHT22;11730;51.248;22.534;2023-03-01T20:03:31;2.10;90.00
23122;DHT22;11730;51.248;22.534;2023-03-01T20:08:29;1.80;90.00
23122;DHT22;11730;51.248;22.534;2023-03-01T20:11:03;2.00;90.10
23122;DHT22;11730;51.248;22.534;2023-03-01T20:15:58;1.80;90.60
23122;DHT22;11730;51.248;22.534;2023-03-01T20:18:26;2.00;90.20
23122;DHT22;11730;51.248;22.534;2023-03-01T20:23:21;1.90;90.20
23122;DHT22;11730;51.248;22.534;2023-03-01T20:25:48;1.60;90.30
23122;DHT22;11730;51.248;22.534;2023-03-01T20:28:17;1.80;90.60
23122;DHT22;11730;51.248;22.534;2023-03-01T20:30:44;1.70;90.50
23122;DHT22;11730;51.248;22.534;2023-03-01T20:35:41;1.90;90.70
23122;DHT22;11730;51.248;22.534;2023-03-01T20:47:58;2.00;91.30
23122;DHT22;11730;51.248;22.534;2023-03-01T20:50:25;2.00;91.40
23122;DHT22;11730;51.248;22.534;2023-03-01T21:00:14;1.50;91.90
23122;DHT22;11730;51.248;22.534;2023-03-01T21:02:42;1.50;91.50
23122;DHT22;11730;51.248;22.534;2023-03-01T21:05:09;1.50;92.10
23122;DHT22;11730;51.248;22.534;2023-03-01T21:14:58;1.80;92.00
23122;DHT22;11730;51.248;22.534;2023-03-01T21:22:20;1.80;92.10
23122;DHT22;11730;51.248;22.534;2023-03-01T21:29:45;1.60;91.80
23122;DHT22;11730;51.248;22.534;2023-03-01T21:32:13;1.60;91.90
23122;DHT22;11730;51.248;22.534;2023-03-01T21:34:40;1.40;92.80
23122;DHT22;11730;51.248;22.534;2023-03-01T21:37:08;1.50;92.10
23122;DHT22;11730;51.248;22.534;2023-03-01T21:42:04;1.40;92.40